Time,TemperatureF,DewpointF,PressureIn,WindDirection,WindDirectionDegrees,WindSpeedMPH,WindSpeedGustMPH,Humidity,HourlyPrecipIn,Conditions,Clouds,dailyrainin,SoftwareType,DateUTC
2013-08-19 00:12:00,66.0,61.0,-100.00,North,-999,0.0,-999.0,84,-99.99,,,0.00,,2013-08-19 04:12:00,
2013-08-19 00:23:00,66.0,61.0,-100.00,North,-999,0.0,-999.0,84,-99.99,,,0.00,,2013-08-19 04:23:00,
2013-08-19 00:33:00,66.0,61.0,-100.00,North,-999,0.0,-999.0,84,-99.99,,,0.00,,2013-08-19 04:33:00,
2013-08-19 00:42:00,66.0,61.0,-100.00,North,-999,0.0,-999.0,84,-99.99,,,0.00,,2013-08-19 04:42:00,
2013-08-19 01:11:00,63.0,59.0,-100.00,North,-999,-999.0,-999.0,87,0.00,,,0.00,,2013-08-19 05:11:00,
2013-08-19 01:22:00,63.0,59.0,-100.00,North,-999,-999.0,-999.0,87,0.00,,,0.00,,2013-08-19 05:22:00,
2013-08-19 01:30:00,63.0,59.0,-100.00,North,-999,-999.0,-999.0,87,0.00,,,-99.99,,2013-08-19 05:30:00,
2013-08-19 01:33:00,63.0,59.0,-100.00,North,-999,-999.0,-999.0,87,0.00,,,0.00,,2013-08-19 05:33:00,
2013-08-19 01:42:00,63.0,59.0,-100.00,North,-999,-999.0,-999.0,87,0.00,,,0.00,,2013-08-19 05:42:00,
2013-08-19 02:11:00,63.0,59.0,-100.00,North,-999,-999.0,-999.0,87,0.00,,,-99.99,,2013-08-19 06:11:00,
2013-08-19 02:21:00,63.0,59.0,-100.00,North,-999,-999.0,-999.0,87,0.00,,,-99.99,,2013-08-19 06:21:00,
2013-08-19 03:12:00,63.0,59.0,-100.00,North,-999,0.0,-999.0,86,-99.99,,,0.00,,2013-08-19 07:12:00,
2013-08-19 03:21:00,63.0,59.0,-100.00,North,-999,0.0,-999.0,86,-99.99,,,0.00,,2013-08-19 07:21:00,
2013-08-19 03:32:00,63.0,59.0,-100.00,North,-999,0.0,-999.0,86,-99.99,,,0.00,,2013-08-19 07:32:00,
2013-08-19 03:42:00,63.0,59.0,-100.00,North,-999,0.0,-999.0,86,-99.99,,,0.00,,2013-08-19 07:42:00,
2013-08-19 04:22:00,63.0,58.0,-100.00,North,-999,0.0,-999.0,85,0.00,,,0.00,,2013-08-19 08:22:00,
2013-08-19 04:32:00,63.0,58.0,-100.00,North,-999,0.0,-999.0,85,0.00,,,0.00,,2013-08-19 08:32:00,
2013-08-19 04:42:00,63.0,58.0,-100.00,North,-999,0.0,-999.0,85,0.00,,,0.00,,2013-08-19 08:42:00,
2013-08-19 05:11:00,61.0,57.0,-100.00,North,-999,0.0,-999.0,88,0.00,,,-99.99,,2013-08-19 09:11:00,
2013-08-19 05:22:00,61.0,57.0,-100.00,North,-999,0.0,-999.0,88,0.00,,,-99.99,,2013-08-19 09:22:00,
2013-08-19 05:33:00,61.0,57.0,-100.00,North,-999,0.0,-999.0,88,0.00,,,-99.99,,2013-08-19 09:33:00,
2013-08-19 05:43:00,61.0,57.0,-100.00,North,-999,0.0,-999.0,88,0.00,,,-99.99,,2013-08-19 09:43:00,
2013-08-19 06:12:00,61.0,57.0,-100.00,North,-999,0.0,-999.0,86,0.00,,,0.00,,2013-08-19 10:12:00,
2013-08-19 06:23:00,61.0,57.0,-100.00,North,-999,0.0,-999.0,86,0.00,,,0.00,,2013-08-19 10:23:00,
2013-08-19 06:33:00,61.0,57.0,-100.00,North,-999,0.0,-999.0,86,0.00,,,0.00,,2013-08-19 10:33:00,
2013-08-19 06:43:00,61.0,57.0,-100.00,North,-999,0.0,-999.0,86,0.00,,,0.00,,2013-08-19 10:43:00,
2013-08-19 06:45:00,62.0,57.0,-100.00,North,-999,0.0,-999.0,85,0.00,,,0.00,,2013-08-19 10:45:00,
2013-08-19 08:30:00,69.0,57.0,-100.00,North,-999,0.0,-999.0,65,-99.99,,,0.00,,2013-08-19 12:30:00,
2013-08-19 09:22:00,69.0,57.0,-100.00,North,-999,0.0,-999.0,65,-99.99,,,0.00,,2013-08-19 13:22:00,
2013-08-19 10:11:00,71.0,57.0,-100.00,North,-999,0.0,-999.0,61,-99.99,,,0.00,,2013-08-19 14:11:00,
2013-08-19 10:22:00,71.0,57.0,-100.00,North,-999,0.0,-999.0,61,-99.99,,,0.00,,2013-08-19 14:22:00,
2013-08-19 10:32:00,71.0,57.0,-100.00,North,-999,0.0,-999.0,61,-99.99,,,0.00,,2013-08-19 14:32:00,
2013-08-19 10:42:00,71.0,57.0,-100.00,North,-999,0.0,-999.0,61,-99.99,,,0.00,,2013-08-19 14:42:00,
2013-08-19 11:11:00,72.0,57.0,-100.00,North,-999,-999.0,-999.0,58,0.00,,,0.00,,2013-08-19 15:11:00,
2013-08-19 11:23:00,72.0,57.0,-100.00,North,-999,-999.0,-999.0,58,0.00,,,0.00,,2013-08-19 15:23:00,
2013-08-19 11:34:00,72.0,57.0,-100.00,North,-999,-999.0,-999.0,58,0.00,,,0.00,,2013-08-19 15:34:00,
2013-08-19 11:44:00,72.0,57.0,-100.00,North,-999,-999.0,-999.0,58,0.00,,,0.00,,2013-08-19 15:44:00,
2013-08-19 11:45:00,75.0,56.0,-100.00,North,-999,0.0,-999.0,51,0.00,,,0.00,,2013-08-19 15:45:00,
2013-08-19 12:13:00,75.0,56.0,-100.00,North,-999,0.0,-999.0,51,0.00,,,0.00,,2013-08-19 16:13:00,
2013-08-19 12:23:00,75.0,56.0,-100.00,North,-999,0.0,-999.0,51,0.00,,,0.00,,2013-08-19 16:23:00,
2013-08-19 12:34:00,75.0,56.0,-100.00,North,-999,0.0,-999.0,51,0.00,,,0.00,,2013-08-19 16:34:00,
2013-08-19 12:45:00,78.0,56.0,-100.00,North,-999,-999.0,-999.0,47,0.00,,,0.00,,2013-08-19 16:45:00,
2013-08-19 13:13:00,78.0,56.0,-100.00,North,-999,-999.0,-999.0,47,0.00,,,0.00,,2013-08-19 17:13:00,
2013-08-19 13:30:00,78.0,-99.9,-100.00,North,-999,-999.0,-999.0,47,0.00,,,0.00,,2013-08-19 17:30:00,
2013-08-19 13:38:00,78.0,56.0,-100.00,North,-999,-999.0,-999.0,47,0.00,,,0.00,,2013-08-19 17:38:00,
2013-08-19 14:19:00,81.0,56.0,-100.00,North,-999,0.0,-999.0,42,0.00,,,0.00,,2013-08-19 18:19:00,
2013-08-19 14:28:00,81.0,56.0,-100.00,North,-999,0.0,-999.0,42,0.00,,,0.00,,2013-08-19 18:28:00,
2013-08-19 14:45:00,83.0,55.0,-100.00,North,-999,0.0,-999.0,38,-99.99,,,0.00,,2013-08-19 18:45:00,
2013-08-19 15:16:00,83.0,55.0,-100.00,North,-999,0.0,-999.0,38,-99.99,,,0.00,,2013-08-19 19:16:00,
2013-08-19 15:30:00,-999.0,-99.9,-100.00,North,-999,0.0,-999.0,38,-99.99,,,0.00,,2013-08-19 19:30:00,
2013-08-19 15:40:00,83.0,55.0,-100.00,North,-999,0.0,-999.0,38,-99.99,,,0.00,,2013-08-19 19:40:00,
2013-08-19 15:45:00,85.0,55.0,-100.00,North,-999,-999.0,-999.0,36,0.00,,,0.00,,2013-08-19 19:45:00,
2013-08-19 16:20:00,85.0,55.0,-100.00,North,-999,-999.0,-999.0,36,0.00,,,0.00,,2013-08-19 20:20:00,
2013-08-19 16:30:00,85.0,-99.9,-100.00,North,-999,-999.0,-999.0,36,0.00,,,0.00,,2013-08-19 20:30:00,
2013-08-19 16:40:00,85.0,55.0,-100.00,North,-999,-999.0,-999.0,36,0.00,,,0.00,,2013-08-19 20:40:00,
2013-08-19 17:16:00,86.0,56.0,-100.00,North,-999,0.0,-999.0,36,0.00,,,0.00,,2013-08-19 21:16:00,
2013-08-19 17:25:00,86.0,56.0,-100.00,North,-999,0.0,-999.0,36,0.00,,,0.00,,2013-08-19 21:25:00,
2013-08-19 17:38:00,86.0,56.0,-100.00,North,-999,0.0,-999.0,36,0.00,,,0.00,,2013-08-19 21:38:00,
2013-08-19 18:45:00,81.0,58.0,-100.00,North,-999,0.0,-999.0,46,-99.99,,,0.00,,2013-08-19 22:45:00,
2013-08-19 19:15:00,81.0,58.0,-100.00,North,-999,0.0,-999.0,46,-99.99,,,0.00,,2013-08-19 23:15:00,
2013-08-19 19:25:00,81.0,58.0,-100.00,North,-999,0.0,-999.0,46,-99.99,,,0.00,,2013-08-19 23:25:00,
2013-08-19 19:36:00,81.0,58.0,-100.00,North,-999,0.0,-999.0,46,-99.99,,,0.00,,2013-08-19 23:36:00,
2013-08-19 20:11:00,77.0,59.0,-100.00,North,-999,-999.0,-999.0,53,0.00,,,0.00,,2013-08-20 00:11:00,
2013-08-19 20:24:00,77.0,59.0,-100.00,North,-999,-999.0,-999.0,53,0.00,,,0.00,,2013-08-20 00:24:00,
2013-08-19 20:32:00,77.0,59.0,-100.00,North,-999,-999.0,-999.0,53,0.00,,,0.00,,2013-08-20 00:32:00,
2013-08-19 20:42:00,77.0,59.0,-100.00,North,-999,-999.0,-999.0,53,0.00,,,0.00,,2013-08-20 00:42:00,
2013-08-19 21:11:00,73.0,60.0,-100.00,North,-999,0.0,-999.0,64,-99.99,,,0.00,,2013-08-20 01:11:00,
2013-08-19 21:22:00,73.0,60.0,-100.00,North,-999,0.0,-999.0,64,-99.99,,,0.00,,2013-08-20 01:22:00,
2013-08-19 21:32:00,73.0,60.0,-100.00,North,-999,0.0,-999.0,64,-99.99,,,0.00,,2013-08-20 01:32:00,
2013-08-19 21:42:00,73.0,60.0,-100.00,North,-999,0.0,-999.0,64,-99.99,,,0.00,,2013-08-20 01:42:00,
2013-08-19 22:11:00,70.0,60.0,-100.00,North,-999,0.0,-999.0,71,0.00,,,0.00,,2013-08-20 02:11:00,
2013-08-19 22:21:00,70.0,60.0,-100.00,North,-999,0.0,-999.0,71,0.00,,,0.00,,2013-08-20 02:21:00,
2013-08-19 22:33:00,70.0,60.0,-100.00,North,-999,0.0,-999.0,71,0.00,,,0.00,,2013-08-20 02:33:00,
2013-08-19 22:42:00,70.0,60.0,-100.00,North,-999,0.0,-999.0,71,0.00,,,0.00,,2013-08-20 02:42:00,
2013-08-19 23:11:00,70.0,61.0,-100.00,North,-999,0.0,-999.0,73,0.00,,,-99.99,,2013-08-20 03:11:00,
2013-08-19 23:22:00,70.0,61.0,-100.00,North,-999,0.0,-999.0,73,0.00,,,-99.99,,2013-08-20 03:22:00,
2013-08-19 23:33:00,70.0,61.0,-100.00,North,-999,0.0,-999.0,73,0.00,,,-99.99,,2013-08-20 03:33:00,
2013-08-19 23:43:00,70.0,61.0,-100.00,North,-999,0.0,-999.0,73,0.00,,,-99.99,,2013-08-20 03:43:00,